• Join FlightAware (Why Join?)
  • Login
  • US Flag 
01:21PM EDT


 

Airport Tracker/Info


-or-


 

Live Flight TrackerFlight Track Log ✈ JBU41 ✈ 16-May-2013 ✈ KJFK - KMCO

Flight Track Log - Related Links

Times and Time Zones

All times are in EDT time to prevent confusion due to time zone crossing. See the JBU41 flight status page for this flight to view local times or setup timezone preferences in your user account.

Time Position Orientation Groundspeed Altitude Reporting Facility
EDT Latitude Longitude Course Direction KTS MPH feet Rate Location/Type
10:56AM 40.5997 -73.8022 218° Southwest 162 186 1,800  Level New York Center
10:57AM 40.5456 -73.8053 182° South 190 219 3,000 1,920 Climbing New York Center
10:58AM 39.4269 -73.9854 222° Southwest  Level FlightAware Approximate
10:58AM 40.5144 -73.7167 115° Southeast 202 232 5,700  Level New York Center
10:59AM 39.3561 -74.0607 218° Southwest  Level FlightAware Approximate
10:59AM 40.4628 -73.6133 123° Southeast 260 299 8,700  Level New York Center
11:00AM 39.2836 -74.1332 218° Southwest  Level FlightAware Approximate
11:00AM 40.3936 -73.5478 144° Southeast 317 365 11,300  Level New York Center
11:01AM 39.2111 -74.2057 218° Southwest  Level FlightAware Approximate
11:01AM 40.2431 -73.5044 168° South 327 376 14,300  Level Washington Center
11:02AM 40.1331 -73.5267 189° South 339 390 16,800 2,100 Climbing Washington Center
11:03AM 40.0336 -73.5483 189° South 362 417 18,600 1,800 Climbing Washington Center
11:04AM 39.9236 -73.5758 191° South 385 443 20,500 1,740 Climbing Washington Center
11:05AM 39.8136 -73.6033 191° South 397 457 22,200 1,620 Climbing Washington Center
11:06AM 39.7211 -73.6733 210° Southwest 391 450 23,800 1,380 Climbing Washington Center
11:07AM 39.6372 -73.7728 222° Southwest 397 457 25,000 1,260 Climbing Washington Center
11:08AM 39.5489 -73.8692 220° Southwest 412 474 26,400 1,260 Climbing Washington Center
11:09AM 39.4567 -73.9656 219° Southwest 417 480 27,600 1,140 Climbing Washington Center
11:10AM 39.3661 -74.0667 221° Southwest 429 494 28,700 1,020 Climbing Washington Center
11:11AM 39.2736 -74.1706 221° Southwest 429 494 29,700 1,140 Climbing Washington Center
11:12AM 39.1811 -74.2717 220° Southwest 434 499 31,000 1,260 Climbing Washington Center
11:13AM 39.0883 -74.3722 220° Southwest 440 506 32,300 1,200 Climbing Washington Center
11:14AM 38.9975 -74.4725 221° Southwest 440 506 33,400 1,020 Climbing Washington Center
11:15AM 38.9067 -74.5672 219° Southwest 434 499 34,400 840 Climbing Washington Center
11:16AM 38.8117 -74.6725 221° Southwest 434 499 35,100 720 Climbing Washington Center
11:17AM 38.7164 -74.7694 218° Southwest 440 506 35,900 420 Climbing Washington Center
11:18AM 38.6214 -74.8717 220° Southwest 445 512 36,000  Climbing Washington Center
11:19AM 38.5300 -74.9653 219° Southwest 445 512 36,000 -60 Level Washington Center
11:20AM 38.4367 -75.0669 220° Southwest 445 512 35,900  Descending Washington Center
11:21AM 38.3411 -75.1681 220° Southwest 445 512 36,000  Climbing Washington Center
11:22AM 38.2581 -75.2639 222° Southwest 450 518 36,000  Level Washington Center
11:23AM 38.1603 -75.3594 218° Southwest 450 518 36,000  Level Washington Center
11:24AM 38.0647 -75.4572 219° Southwest 450 518 36,000  Level Washington Center
11:25AM 37.9561 -75.5286 207° Southwest 450 518 36,000 -60 Level Washington Center
11:26AM 37.8458 -75.5969 206° Southwest 445 512 35,900 -60 Descending Washington Center
11:27AM 37.7353 -75.6628 205° Southwest 440 506 35,900  Level Washington Center
11:28AM 37.6244 -75.7308 206° Southwest 440 506 36,000  Climbing Washington Center
11:29AM 37.5139 -75.7961 205° Southwest 447 514 36,000 -60 Level Washington Center
11:30AM 37.3992 -75.8586 203° Southwest 447 514 35,900  Descending Washington Center
11:31AM 37.2883 -75.9233 205° Southwest 447 514 36,000  Climbing Washington Center
11:32AM 37.1797 -75.9908 206° Southwest 447 514 36,000  Level Washington Center
11:33AM 37.0731 -76.0656 209° Southwest 447 514 36,000  Level Washington Center
11:34AM 36.9475 -76.1456 207° Southwest 447 514 36,000  Level Washington Center
11:35AM 36.8408 -76.2200 209° Southwest 452 520 36,000  Level Washington Center
11:36AM 36.7319 -76.2969 210° Southwest 452 520 36,000  Level Washington Center
11:37AM 36.6250 -76.3736 210° Southwest 452 520 36,000  Level Washington Center
11:38AM 36.5161 -76.4447 208° Southwest 452 520 36,000  Level Washington Center
11:39AM 36.4069 -76.5183 208° Southwest 452 520 36,000 -60 Level Washington Center
11:40AM 36.2981 -76.5919 209° Southwest 452 520 35,900  Descending Washington Center
11:41AM 36.1908 -76.6628 208° Southwest 447 514 36,000  Climbing Washington Center
11:42AM 36.0817 -76.7358 208° Southwest 447 514 36,000  Level Washington Center
11:43AM 35.9747 -76.8061 208° Southwest 447 514 36,000 -60 Level Washington Center
11:44AM 35.8675 -76.8786 209° Southwest 442 509 35,900  Descending Washington Center
11:45AM 35.7625 -76.9486 208° Southwest 442 509 36,000  Climbing Washington Center
11:46AM 35.6550 -77.0211 209° Southwest 442 509 36,000  Level Washington Center
11:47AM 35.5644 -77.0908 212° Southwest 437 503 36,000  Level Washington Center
11:48AM 35.4553 -77.1578 207° Southwest 437 503 36,000 -60 Level Washington Center
11:49AM 35.3500 -77.2294 209° Southwest 437 503 35,900  Descending Washington Center
11:50AM 35.2406 -77.2958 206° Southwest 443 510 36,000  Climbing Washington Center
11:51AM 35.1308 -77.3722 210° Southwest 443 510 36,000  Level Washington Center
11:52AM 35.0192 -77.4461 208° Southwest 443 510 36,000  Level Washington Center
11:53AM 34.9094 -77.5194 209° Southwest 443 510 36,000  Level Washington Center
11:54AM 34.8000 -77.5878 207° Southwest 443 510 36,000  Level Washington Center
11:55AM 34.6922 -77.6583 208° Southwest 443 510 36,000 -60 Level Washington Center
11:56AM 34.5825 -77.7286 208° Southwest 443 510 35,900  Descending Washington Center
11:57AM 34.4750 -77.7989 208° Southwest 443 510 36,000  Climbing Washington Center
11:58AM 34.3631 -77.8639 206° Southwest 443 510 36,000  Level Washington Center
11:59AM 34.2411 -77.9083 197° South 438 504 36,000  Level Washington Center
12:03PM 34.0893 -77.9451 191° South  Level FlightAware Approximate
12:03PM 33.7539 -78.0494 191° South 469 540 36,000  Level Jacksonville Center
12:04PM 33.6342 -78.0833 193° South 450 518 36,000  Level Jacksonville Center
12:05PM 33.5122 -78.1175 193° South 444 511 36,000  Level Jacksonville Center
12:06PM 33.3906 -78.1511 193° South 438 504 36,000  Level Jacksonville Center
12:07PM 33.2689 -78.1875 194° South 443 510 36,000  Level Jacksonville Center
12:08PM 33.1467 -78.2189 192° South 443 510 36,000  Level Jacksonville Center
12:09PM 33.0250 -78.2547 194° South 443 510 36,000  Level Jacksonville Center
12:10PM 32.9008 -78.2861 192° South 443 510 36,000  Level Jacksonville Center
12:11PM 32.7811 -78.3192 193° South 438 504 36,000 -60 Level Jacksonville Center
12:12PM 32.6614 -78.3575 195° South 438 504 35,900  Descending Jacksonville Center
12:13PM 32.5394 -78.3906 193° South 443 510 36,000  Climbing Jacksonville Center
12:14PM 32.4175 -78.4236 193° South 443 510 36,000 -60 Level Jacksonville Center
12:15PM 32.2978 -78.4617 195° South 443 510 35,900  Descending Jacksonville Center
12:16PM 32.1758 -78.4969 194° South 443 510 36,000  Climbing Jacksonville Center
12:17PM 32.0497 -78.5347 194° South 443 510 36,000  Level Jacksonville Center
12:18PM 31.9300 -78.5697 194° South 448 516 36,000  Level Jacksonville Center
12:19PM 31.8119 -78.6022 193° South 449 517 36,000 -60 Level Jacksonville Center
12:20PM 31.6922 -78.6394 195° South 449 517 35,900 -60 Descending Jacksonville Center
12:21PM 31.5703 -78.6719 193° South 449 517 35,900  Level Jacksonville Center
12:22PM 31.4461 -78.7092 194° South 449 517 36,000  Climbing Jacksonville Center
12:23PM 31.3261 -78.7414 193° South 449 517 36,000  Level Jacksonville Center
12:24PM 31.2022 -78.7783 194° South 449 517 36,000  Level Jacksonville Center
12:25PM 31.0800 -78.8103 193° South 449 517 36,000  Level Jacksonville Center
12:26PM 30.9456 -78.8500 194° South 457 526 36,000 -60 Level Jacksonville Center
12:27PM 30.8236 -78.8844 194° South 462 532 35,900  Descending Jacksonville Center
12:28PM 30.7056 -78.9208 195° South 445 512 36,000  Climbing Jacksonville Center
12:29PM 30.5544 -78.9603 193° South 452 520 36,000  Level Miami Center
12:30PM 30.4353 -78.9942 194° South 452 520 36,000 -60 Level Miami Center
12:31PM 30.3178 -79.0422 199° South 457 526 35,900 -60 Descending Miami Center
12:32PM 30.1961 -79.0947 200° South 457 526 35,900  Level Miami Center
12:33PM 30.0828 -79.1428 200° South 451 519 36,000  Climbing Miami Center
12:34PM 29.9714 -79.1956 202° Southwest 445 512 36,000  Level Miami Center
12:35PM 29.8581 -79.2481 202° Southwest 439 505 36,000  Level Miami Center
12:36PM 29.7467 -79.2981 201° Southwest 439 505 36,000  Level Miami Center
12:37PM 29.6311 -79.3408 198° South 439 505 36,000 -420 Level Miami Center
12:38PM 29.5197 -79.3933 202° Southwest 434 499 35,200 -1,380 Descending Miami Center
12:39PM 29.4083 -79.4406 200° South 434 499 33,300 360 Descending Miami Center
12:40PM 29.2992 -79.4858 200° South 429 494 36,000 -2,400 Climbing Miami Center
12:41PM 29.1897 -79.5306 200° South 429 494 28,600 -4,860 Descending Miami Center
12:42PM 29.0944 -79.5994 212° Southwest 429 494 26,300 -2,220 Descending Miami Center
12:43PM 29.0506 -79.7100 246° West 381 438 24,200 -2,100 Descending Miami Center
12:44PM 29.0169 -79.8256 252° West 372 428 22,100 -2,160 Descending Miami Center
12:45PM 28.9833 -79.9336 250° West 377 434 19,900 -2,100 Descending Miami Center
12:46PM 28.9497 -80.0442 251° West 371 427 17,900 -1,740 Descending Miami Center
12:49PM 28.8667 -80.2833 248° West 351 404 14,400 -1,260 Descending Orlando TRACON
12:50PM 28.8333 -80.4000 252° West 351 404 14,000 -240 Descending Orlando TRACON
12:51PM 28.8167 -80.5000 259° West 359 413 14,000 -360 Level Orlando TRACON
12:52PM 28.8000 -80.6000 259° West 357 411 13,400 -1,980 Descending Orlando TRACON
12:53PM 28.7833 -80.7167 261° West 342 394 10,300 -1,620 Descending Orlando TRACON
12:54PM 28.7833 -80.8167 270° West 295 339 10,000 -180 Descending Orlando TRACON
12:55PM 28.7667 -80.9000 257° West 298 343 10,000 -1,020 Level Orlando TRACON
12:56PM 28.7500 -80.9833 257° West 295 339 8,200 -1,740 Descending Orlando TRACON
12:57PM 28.7500 -81.0667 270° West 262 302 6,700 -1,200 Descending Orlando TRACON
12:58PM 28.7167 -81.1500 245° Southwest 245 282 5,700 -960 Descending Orlando TRACON
12:59PM 28.7000 -81.2333 257° West 234 269 4,700 -1,020 Descending Orlando TRACON
01:00PM 28.6667 -81.2667 221° Southwest 218 251 3,700 -900 Descending Orlando TRACON
01:01PM 28.6000 -81.2833 192° South 207 238 3,000 -600 Descending Orlando TRACON
01:02PM 28.5500 -81.2833 180° South 173 199 2,500 -840 Descending Orlando TRACON
01:03PM 28.5000 -81.2833 180° South 147 169 1,300 -960 Descending Orlando TRACON
01:04PM 28.4667 -81.2833 180° South 141 162 500 -780 Descending Orlando TRACON